Relevés horaires Bierset (Belgique)


Relevés horaires à Bierset - Mercredi 25 Nov. 2020
Heure UTC1 Température [°C] Vent [km/h] Hum. [%] Pres.4 [hPa] Visi. [Km] Nébu. [octa] Préc.5 [mm] Cond.
2m. Res. Ros. Dir.2 Vit. Moy. Raf.3
23:00 6.9 5.5 4.4 S 7.4 7.4 16.7 84 1020.2(0.8/3h) 15 4/8 -- --
22:00 7.4 6.1 4.4 S 7.4 7.4 16.7 81 1019.7(0.7/3h) 17 2/8 -- --
21:00 8.0 6.8 4.7 S 7.4 11.1 18.5 80 1019.6(1.1/3h) 20 6/8 -- --
20:00 8.5 7.4 4.8 S 7.4 11.1 18.5 78 1019.3(1.3/3h) 20 7/8 -- --
19:00 8.5 7 4.8 SSO 9.3 9.3 14.8 78 1019(1.3/3h) 20 7/8 -- --
18:00 8.5 6.6 5.0 S 11.1 13.0 18.5 79 1018.4(1.1/3h) 20 7/8 0/12h
--
17:00 8.3 6.4 4.9 SSO 11.1 11.1 18.5 79 1018(0.7/3h) 20 4/8 -- --
16:00 9.0 7.6 5.1 SSO 9.3 11.1 16.7 77 1017.6(0.2/3h) 20 4/8 -- --
15:00 9.7 8.1 5.1 S 11.1 13.0 18.5 73 1017.1(-0.2/3h) 20 5/8 -- --
14:00 9.6 8 5.1 S 11.1 11.1 16.7 73 1017.2(-0.2/3h) 20 5/8 -- --
13:00 9.3 8.3 4.9 S 7.4 9.3 14.8 74 1017.4(0.0/3h) 15 7/8 -- --
12:00 8.7 7.2 4.4 S 9.3 14.8 27.8 74 1017.4(0.3/3h) 15 6/8 0/6h
--
11:00 8.0 6 4.0 S 11.1 13.0 24.1 76 1017.6(0.7/3h) 10 5/8 -- --
10:00 6.7 4.1 3.2 S 13.0 14.8 22.2 78 1017.6(0.9/3h) 10 5/8 -- --
09:00 6.0 3 2.6 S 14.8 14.8 27.8 79 1017.4(1.1/3h) 10 5/8 -- --
08:00 5.1 2.6 2.2 S 11.1 13.0 27.8 81 1017.1(0.9/3h) 10 5/8 -- --
07:00 5.2 3.1 2.6 S 9.3 14.8 24.1 83 1016.8(0.5/3h) 10 5/8 -- --
06:00 4.8 1.8 2.2 S 13.0 13.0 22.2 83 1016.3(-0.3/3h) 16 5/8 0/12h
--
05:00 4.9 2.7 2.1 S 9.3 11.1 18.5 82 1016.3(-0.6/3h) 16 5/8 -- --
04:00 5.8 3.8 2.3 S 9.3 11.1 20.4 78 1016.3(-1.0/3h) 16 5/8 -- --
03:00 5.1 2.6 2.1 S 11.1 11.1 22.2 81 1016.6(-1.3/3h) 30 5/8 -- --
02:00 4.9 2.3 1.9 SSE 11.1 11.1 14.8 81 1016.9(-1.6/3h) 30 5/8 -- --
01:00 4.7 2.9 1.8 SSE 7.4 9.3 20.4 81 1017.4(-1.6/3h) 30 5/8 -- --
00:00 4.8 2.6 1.7 SSE 9.3 13.0 24.1 80 1018(-1.3/3h) 30 5/8 0/6h
0/24h
--

1 Coordinated Universal Time. Actuellement il est 01:00 locale et 23:00 UTC.

2 Le vent souffle depuis la direction indiquée vers la direction oposée.

3 Les rafales max. sont disponible 40 min après l'heure du relevé.

4 Pour les stations d'altitude (plus de 600m) le géopotentiel du niveau le plus proche de la pression obligatoire est indiqué.

5 Les stations disposant d'un diffuseur peuvent indiquer "trace". Cela signifie que des précipitations ont touchés le sol mais que la quantité est inférieure à 0.1 mm.

Récapitulatif de la journée
Température [°C] Vent [km/h] Ensoleillement4 [h] Precipitations totale5 [mm] Pression [Hpa]
Min1 Max.2 Moy.3 Max. Min Max.
4.2 10.1 11.7 27.8 0 h 0 min 0 1016.3 1020.2

1 Température minimale relevée entre 18:00 UTC la veille et 18:00 UTC le jour donné.

2 Température maximale relevée entre 06:00 UTC le jour donné et 06:00 UTC le lendemain.

3 Vent moyen de la journée basé sur les relevés horaires.

4 Ensoleillement en heures relevé entre 06:00 UTC la veille et 06:00 UTC le jour donné.

5 Précipitations totales tombées entre 06:00 UTC la jour donné et 06:00 UTC le lendemain.

Graphiques horaires